createdAt,value
2022-11-15T00:07:54.114Z,39.85
2022-11-15T00:16:55.136Z,35.97
2022-11-15T00:25:19.272Z,43.05
2022-11-15T00:42:10.175Z,37.42
2022-11-15T00:50:36.815Z,38.47
2022-11-15T00:59:01.086Z,34.47
2022-11-15T01:07:27.607Z,35.83
2022-11-15T01:15:52.193Z,34.28
2022-11-15T01:24:19.066Z,40.22
2022-11-15T01:32:42.880Z,37.63
2022-11-15T01:49:36.647Z,42.05
2022-11-15T01:58:07.604Z,37.28
2022-11-15T02:06:31.407Z,36.92
2022-11-15T02:14:59.365Z,39.83
2022-11-15T02:24:00.326Z,29.85
2022-11-15T02:32:38.014Z,33.33
2022-11-15T02:41:06.406Z,35.25
2022-11-15T02:49:37.024Z,39.38
2022-11-15T02:58:14.810Z,31.42
2022-11-15T03:06:49.988Z,34.13
2022-11-15T03:15:18.385Z,32.45
2022-11-15T03:23:45.432Z,31.42
2022-11-15T03:32:14.205Z,31.98
2022-11-15T03:40:43.843Z,30.85
2022-11-15T03:49:12.410Z,30.23
2022-11-15T03:57:39.281Z,30.83
2022-11-15T04:06:03.004Z,32.42
2022-11-15T04:14:29.754Z,28.60
2022-11-15T04:23:08.033Z,32.25
2022-11-15T04:31:34.278Z,29.38
2022-11-15T04:39:57.821Z,32.47
2022-11-15T04:48:24.534Z,30.77
2022-11-15T04:56:49.890Z,28.10
2022-11-15T05:05:15.978Z,28.48
2022-11-15T05:13:39.783Z,29.55
2022-11-15T05:22:06.294Z,26.08
2022-11-15T05:30:30.259Z,26.58
2022-11-15T05:38:57.930Z,26.77
2022-11-15T05:47:25.242Z,24.85
2022-11-15T05:55:52.281Z,26.92
2022-11-15T06:04:19.186Z,23.90
2022-11-15T06:12:46.017Z,34.60
2022-11-15T06:21:10.303Z,33.20
2022-11-15T06:29:37.057Z,29.90
2022-11-15T06:38:07.389Z,31.08
2022-11-15T06:46:33.745Z,31.20
2022-11-15T06:54:58.013Z,33.53
2022-11-15T07:11:48.303Z,33.65
2022-11-15T07:20:16.690Z,37.35
2022-11-15T07:28:40.672Z,35.72
2022-11-15T07:37:07.252Z,34.13
2022-11-15T07:45:31.215Z,29.15
2022-11-15T07:53:57.786Z,25.65
2022-11-15T08:02:24.343Z,27.13
2022-11-15T08:10:54.283Z,26.25
2022-11-15T08:19:18.257Z,24.35
2022-11-15T08:27:44.742Z,22.05
2022-11-15T08:36:09.417Z,21.02
2022-11-15T08:44:36.361Z,23.23
2022-11-15T08:53:00.299Z,23.42
2022-11-15T09:01:27.402Z,22.55
2022-11-15T09:09:51.267Z,21.48
2022-11-15T09:18:18.175Z,23.23
2022-11-15T09:26:42.430Z,19.27
2022-11-15T09:35:09.535Z,20.08
2022-11-15T09:43:42.704Z,19.77
2022-11-15T09:52:11.579Z,24.13
2022-11-15T10:00:45.926Z,25.92
2022-11-15T10:09:01.962Z,23.35
2022-11-15T10:17:29.553Z,26.60
2022-11-15T10:25:39.562Z,21.92
2022-11-15T10:33:44.993Z,28.35
2022-11-15T10:41:53.069Z,27.20
2022-11-15T10:50:11.239Z,28.58
2022-11-15T10:58:35.749Z,27.30
2022-11-15T11:06:51.301Z,31.10
2022-11-15T11:14:59.507Z,29.50
2022-11-15T11:23:22.511Z,29.35
2022-11-15T11:31:38.049Z,33.17
2022-11-15T11:39:53.041Z,32.95
2022-11-15T11:48:11.768Z,37.13
2022-11-15T11:56:27.267Z,29.17
2022-11-15T12:04:40.595Z,28.02
2022-11-15T12:12:53.137Z,26.35
2022-11-15T12:21:07.068Z,27.20
2022-11-15T12:29:19.177Z,24.77
2022-11-15T12:37:59.797Z,29.73
2022-11-15T12:46:17.299Z,24.23
2022-11-15T12:55:05.902Z,24.70
2022-11-15T13:03:29.469Z,26.83
2022-11-15T13:12:02.884Z,27.98
2022-11-15T13:20:30.372Z,31.08
2022-11-15T13:28:39.750Z,28.20
2022-11-15T13:36:47.761Z,26.23
2022-11-15T13:45:01.310Z,25.23
2022-11-15T13:53:09.577Z,28.83
2022-11-15T14:01:21.874Z,25.38
2022-11-15T14:09:38.389Z,29.77
2022-11-15T14:17:49.607Z,29.45
2022-11-15T14:26:00.812Z,25.35
2022-11-15T14:34:06.354Z,24.67
2022-11-15T14:42:15.374Z,28.45
2022-11-15T14:50:23.057Z,26.55
2022-11-15T14:58:31.477Z,30.60
2022-11-15T15:06:37.147Z,36.65
2022-11-15T15:14:45.172Z,32.60
2022-11-15T15:22:50.520Z,35.28
2022-11-15T15:30:58.518Z,34.00
2022-11-15T15:39:03.931Z,41.28
2022-11-15T15:47:15.680Z,35.75
2022-11-15T15:55:21.301Z,34.85
2022-11-15T16:03:29.353Z,33.88
2022-11-15T16:11:34.762Z,31.85
2022-11-15T16:19:42.802Z,37.97
2022-11-15T16:27:48.274Z,43.80
2022-11-15T16:35:57.357Z,46.70
2022-11-15T16:44:02.719Z,45.53
2022-11-15T16:52:10.706Z,43.13
2022-11-15T17:00:17.760Z,44.17
2022-11-15T17:08:25.779Z,43.67
2022-11-15T17:16:31.236Z,40.42
2022-11-15T17:24:39.643Z,45.80
2022-11-15T17:32:45.467Z,46.17
2022-11-15T17:41:02.847Z,45.53
2022-11-15T17:49:08.253Z,48.45
2022-11-15T17:57:16.689Z,46.55
2022-11-15T18:05:22.194Z,53.65
2022-11-15T18:13:30.546Z,48.40
2022-11-15T18:21:56.312Z,48.45
2022-11-15T18:30:05.106Z,50.97
2022-11-15T18:38:10.518Z,46.00
2022-11-15T18:46:21.338Z,42.08
2022-11-15T18:54:31.481Z,43.60
2022-11-15T19:02:39.835Z,44.75
2022-11-15T19:10:45.361Z,52.13
2022-11-15T19:18:56.594Z,43.00
2022-11-15T19:27:02.170Z,39.28
2022-11-15T19:35:11.106Z,42.38
2022-11-15T19:43:16.666Z,53.47
2022-11-15T19:51:27.920Z,52.13
2022-11-15T19:59:33.278Z,43.92
2022-11-15T20:07:41.364Z,42.88
2022-11-15T20:15:46.749Z,45.38
2022-11-15T20:23:55.497Z,48.50
2022-11-15T20:32:01.064Z,53.55
2022-11-15T20:40:10.509Z,63.63
2022-11-15T20:48:16.724Z,65.47
2022-11-15T20:56:25.695Z,73.97
2022-11-15T21:04:31.059Z,57.97
2022-11-15T21:12:38.969Z,61.50
2022-11-15T21:20:45.097Z,59.75
2022-11-15T21:28:53.118Z,59.90
2022-11-15T21:36:58.891Z,55.25
2022-11-15T21:45:07.543Z,66.22
2022-11-15T21:53:12.999Z,55.97
2022-11-15T22:01:33.642Z,44.30
2022-11-15T22:09:39.047Z,44.90
2022-11-15T22:18:02.146Z,42.50
2022-11-15T22:31:20.012Z,41.42
2022-11-15T22:39:25.503Z,39.83
2022-11-15T22:47:33.687Z,39.22
2022-11-15T22:55:41.663Z,36.78
2022-11-15T23:03:49.922Z,38.97
2022-11-15T23:12:07.885Z,43.05
2022-11-15T23:20:41.456Z,46.45
2022-11-15T23:28:41.669Z,48.40
2022-11-15T23:36:50.011Z,43.90
2022-11-15T23:44:55.496Z,42.58
2022-11-15T23:53:03.660Z,51.42
